createdAt,value
2022-10-02T00:00:19.295Z,13.30
2022-10-02T00:02:51.826Z,13.20
2022-10-02T00:05:24.301Z,13.20
2022-10-02T00:07:57.024Z,13.40
2022-10-02T00:10:28.488Z,13.40
2022-10-02T00:12:59.638Z,13.50
2022-10-02T00:15:29.385Z,13.70
2022-10-02T00:18:01.225Z,13.80
2022-10-02T00:20:35.049Z,13.80
2022-10-02T00:23:09.409Z,13.80
2022-10-02T00:25:44.686Z,13.90
2022-10-02T00:28:28.810Z,13.90
2022-10-02T00:31:07.530Z,13.90
2022-10-02T00:33:46.704Z,14.00
2022-10-02T00:36:24.778Z,14.80
2022-10-02T00:39:01.556Z,14.10
2022-10-02T00:42:05.025Z,14.10
2022-10-02T00:44:49.191Z,14.00
2022-10-02T00:47:32.267Z,14.10
2022-10-02T00:50:15.975Z,14.20
2022-10-02T00:52:57.492Z,14.20
2022-10-02T00:55:46.932Z,14.20
2022-10-02T00:58:36.990Z,14.30
2022-10-02T01:01:11.640Z,14.30
2022-10-02T01:03:41.533Z,14.80
2022-10-02T01:06:10.552Z,14.50
2022-10-02T01:08:39.118Z,14.50
2022-10-02T01:11:09.486Z,14.60
2022-10-02T01:13:37.525Z,14.60
2022-10-02T01:16:05.750Z,14.60
2022-10-02T01:18:33.713Z,14.60
2022-10-02T01:21:06.297Z,14.60
2022-10-02T01:23:42.217Z,14.60
2022-10-02T01:26:11.557Z,14.70
2022-10-02T01:28:40.454Z,14.80
2022-10-02T01:31:11.578Z,14.80
2022-10-02T01:33:41.738Z,14.80
2022-10-02T01:36:10.337Z,15.60
2022-10-02T01:38:38.939Z,14.80
2022-10-02T01:41:07.536Z,15.20
2022-10-02T01:43:40.096Z,14.70
2022-10-02T01:46:34.047Z,14.80
2022-10-02T01:49:17.736Z,14.90
2022-10-02T01:52:00.359Z,14.90
2022-10-02T01:54:41.726Z,14.80
2022-10-02T01:57:25.049Z,14.80
2022-10-02T02:00:06.162Z,14.80
2022-10-02T02:02:42.935Z,14.80
2022-10-02T02:05:19.167Z,14.80
2022-10-02T02:07:50.827Z,14.70
2022-10-02T02:10:24.741Z,14.70
2022-10-02T02:12:57.476Z,14.70
2022-10-02T02:15:31.060Z,14.70
2022-10-02T02:18:05.198Z,14.70
2022-10-02T02:20:39.756Z,14.70
2022-10-02T02:23:11.838Z,14.60
2022-10-02T02:25:45.228Z,14.60
2022-10-02T02:28:16.109Z,14.60
2022-10-02T02:30:47.636Z,14.50
2022-10-02T02:33:22.963Z,14.50
2022-10-02T02:35:55.350Z,14.60
2022-10-02T02:38:27.665Z,14.60
2022-10-02T02:41:04.198Z,14.60
2022-10-02T02:43:36.851Z,14.50
2022-10-02T02:46:10.269Z,14.50
2022-10-02T02:48:43.748Z,14.50
2022-10-02T02:51:16.898Z,14.60
2022-10-02T02:53:49.541Z,14.50
2022-10-02T02:56:19.974Z,14.60
2022-10-02T02:58:53.972Z,14.50
2022-10-02T03:01:23.566Z,14.60
2022-10-02T03:03:51.475Z,14.80
2022-10-02T03:06:33.276Z,14.60
2022-10-02T03:09:02.814Z,14.60
2022-10-02T03:11:42.659Z,14.60
2022-10-02T03:14:27.844Z,14.60
2022-10-02T03:17:05.870Z,14.50
2022-10-02T03:19:43.941Z,14.50
2022-10-02T03:22:16.870Z,14.50
2022-10-02T03:24:50.471Z,14.50
2022-10-02T03:27:30.210Z,14.50
2022-10-02T03:30:04.882Z,14.50
2022-10-02T03:32:34.950Z,14.40
2022-10-02T03:35:04.071Z,14.30
2022-10-02T03:37:32.988Z,14.50
2022-10-02T03:40:02.092Z,14.40
2022-10-02T03:42:34.145Z,14.40
2022-10-02T03:45:02.357Z,14.30
2022-10-02T03:47:30.359Z,14.20
2022-10-02T03:49:59.822Z,14.10
2022-10-02T03:52:29.767Z,14.10
2022-10-02T03:55:03.667Z,14.00
2022-10-02T03:57:35.654Z,14.00
2022-10-02T04:00:06.177Z,14.00
2022-10-02T04:02:37.683Z,13.90
2022-10-02T04:05:21.888Z,13.90
2022-10-02T04:07:53.352Z,13.80
2022-10-02T04:10:33.630Z,13.80
2022-10-02T04:13:11.964Z,14.40
2022-10-02T04:15:53.379Z,13.80
2022-10-02T04:18:25.305Z,13.80
2022-10-02T04:20:57.562Z,13.90
2022-10-02T04:23:30.575Z,13.80
2022-10-02T04:26:04.508Z,13.80
2022-10-02T04:28:40.322Z,13.70
2022-10-02T04:31:13.367Z,13.60
2022-10-02T04:33:42.065Z,13.60
2022-10-02T04:36:25.218Z,13.70
2022-10-02T04:39:06.269Z,13.80
2022-10-02T04:41:49.753Z,13.80
2022-10-02T04:44:30.686Z,13.80
2022-10-02T04:47:17.537Z,13.80
2022-10-02T04:50:18.291Z,13.80
2022-10-02T04:53:03.906Z,13.80
2022-10-02T04:55:45.215Z,13.90
2022-10-02T04:58:36.107Z,13.90
2022-10-02T05:01:14.991Z,14.60
2022-10-02T05:04:04.045Z,14.00
2022-10-02T05:06:53.642Z,14.00
2022-10-02T05:09:30.627Z,14.10
2022-10-02T05:12:21.369Z,14.10
2022-10-02T05:15:04.905Z,14.10
2022-10-02T05:17:58.673Z,14.00
2022-10-02T05:20:46.333Z,14.10
2022-10-02T05:23:32.735Z,14.10
2022-10-02T05:26:23.508Z,14.10
2022-10-02T05:29:12.090Z,14.10
2022-10-02T05:31:52.747Z,14.10
2022-10-02T05:34:37.849Z,14.10
2022-10-02T05:37:26.030Z,14.30
2022-10-02T05:39:59.843Z,14.10
2022-10-02T05:42:34.925Z,14.20
2022-10-02T05:45:06.175Z,14.10
2022-10-02T05:47:39.325Z,14.10
2022-10-02T05:50:17.765Z,14.10
2022-10-02T05:52:52.088Z,14.40
2022-10-02T05:55:24.885Z,14.20
2022-10-02T05:58:00.908Z,14.30
2022-10-02T06:00:33.991Z,14.20
2022-10-02T06:03:12.792Z,14.40
2022-10-02T06:05:50.176Z,14.20
2022-10-02T06:08:25.318Z,14.10
2022-10-02T06:10:58.176Z,14.20
2022-10-02T06:13:35.758Z,14.20
2022-10-02T06:16:11.414Z,14.20
2022-10-02T06:18:42.939Z,14.20
2022-10-02T06:21:24.837Z,14.20
2022-10-02T06:23:57.017Z,14.20
2022-10-02T06:26:30.714Z,14.20
2022-10-02T06:29:03.918Z,14.20
2022-10-02T06:31:39.415Z,14.20
2022-10-02T06:34:10.731Z,14.20
2022-10-02T06:37:04.750Z,14.30
2022-10-02T06:39:48.561Z,14.30
2022-10-02T06:42:25.047Z,14.30
2022-10-02T06:45:01.902Z,14.60
2022-10-02T06:47:41.671Z,14.30
2022-10-02T06:50:38.213Z,14.30
2022-10-02T06:53:16.778Z,14.30
2022-10-02T06:55:50.577Z,14.30
2022-10-02T06:58:46.427Z,14.30
2022-10-02T07:01:25.551Z,14.30
2022-10-02T07:04:20.834Z,14.40
2022-10-02T07:07:05.792Z,14.40
2022-10-02T07:10:07.766Z,14.40
2022-10-02T07:13:03.033Z,14.60
2022-10-02T07:15:57.922Z,14.50
2022-10-02T07:18:37.962Z,14.60
2022-10-02T07:21:17.136Z,14.60
2022-10-02T07:23:53.038Z,14.60
2022-10-02T07:26:37.065Z,14.60
2022-10-02T07:29:30.381Z,15.30
2022-10-02T07:32:31.108Z,14.70
2022-10-02T07:35:09.078Z,14.80
2022-10-02T07:37:49.046Z,15.20
2022-10-02T07:40:37.220Z,14.80
2022-10-02T07:43:26.910Z,14.80
2022-10-02T07:46:03.702Z,14.90
2022-10-02T07:48:45.709Z,14.90
2022-10-02T07:51:42.806Z,14.90
2022-10-02T07:54:31.050Z,15.00
2022-10-02T07:57:09.037Z,15.00
2022-10-02T07:59:43.513Z,15.00
2022-10-02T08:02:21.650Z,15.10
2022-10-02T08:04:49.899Z,15.10
2022-10-02T08:07:19.242Z,15.10
2022-10-02T08:09:51.551Z,15.20
2022-10-02T08:12:28.155Z,15.30
2022-10-02T08:14:58.675Z,15.30
2022-10-02T08:17:33.534Z,15.40
2022-10-02T08:20:06.947Z,15.40
2022-10-02T08:22:40.500Z,15.50
2022-10-02T08:25:18.439Z,15.50
2022-10-02T08:27:53.012Z,15.60
2022-10-02T08:30:21.387Z,15.60
2022-10-02T08:32:49.446Z,15.70
2022-10-02T08:35:19.723Z,15.80
2022-10-02T08:38:15.314Z,15.80
2022-10-02T08:41:18.402Z,15.90
2022-10-02T08:44:20.308Z,15.90
2022-10-02T08:47:19.686Z,16.00
2022-10-02T08:50:38.689Z,16.10
2022-10-02T08:53:46.400Z,16.10
2022-10-02T08:56:33.936Z,16.20
2022-10-02T08:59:43.147Z,16.20
2022-10-02T09:02:49.341Z,16.30
2022-10-02T09:05:59.222Z,16.20
2022-10-02T09:09:00.484Z,16.30
2022-10-02T09:11:59.149Z,16.40
2022-10-02T09:14:48.291Z,16.20
2022-10-02T09:17:42.442Z,16.20
2022-10-02T09:20:43.784Z,16.20
2022-10-02T09:23:48.212Z,16.40
2022-10-02T09:26:26.950Z,16.30
2022-10-02T09:29:28.761Z,16.40
2022-10-02T09:32:43.172Z,16.40
2022-10-02T09:35:50.614Z,16.60
2022-10-02T09:38:49.705Z,16.70
2022-10-02T09:42:01.269Z,16.70
2022-10-02T09:45:12.221Z,16.70
2022-10-02T09:48:12.944Z,16.80
2022-10-02T09:51:13.396Z,17.00
2022-10-02T09:54:10.385Z,17.00
2022-10-02T09:57:20.768Z,16.90
2022-10-02T10:00:08.351Z,16.90
2022-10-02T10:03:11.193Z,17.20
2022-10-02T10:05:53.818Z,17.10
2022-10-02T10:08:48.530Z,17.30
2022-10-02T10:11:48.138Z,17.20
2022-10-02T10:15:08.648Z,17.10
2022-10-02T10:18:19.257Z,17.10
2022-10-02T10:21:20.312Z,17.20
2022-10-02T10:24:23.426Z,17.30
2022-10-02T10:27:16.831Z,17.40
2022-10-02T10:30:15.437Z,17.30
2022-10-02T10:33:12.497Z,17.30
2022-10-02T10:35:56.988Z,17.40
2022-10-02T10:38:39.812Z,17.40
2022-10-02T10:41:37.765Z,17.40
2022-10-02T10:44:21.940Z,17.30
2022-10-02T10:47:25.485Z,17.40
2022-10-02T10:50:24.097Z,17.50
2022-10-02T10:53:12.736Z,17.60
2022-10-02T10:56:09.780Z,17.50
2022-10-02T10:58:54.016Z,17.40
2022-10-02T11:01:36.997Z,17.50
2022-10-02T11:04:45.906Z,17.60
2022-10-02T11:07:34.695Z,17.70
2022-10-02T11:10:22.228Z,17.80
2022-10-02T11:13:09.772Z,17.80
2022-10-02T11:16:01.233Z,17.60
2022-10-02T11:18:46.214Z,17.70
2022-10-02T11:21:58.288Z,17.60
2022-10-02T11:24:56.941Z,17.60
2022-10-02T11:27:37.521Z,17.70
2022-10-02T11:30:23.189Z,18.20
2022-10-02T11:33:19.328Z,17.80
2022-10-02T11:36:30.559Z,17.90
2022-10-02T11:39:28.347Z,17.90
2022-10-02T11:42:25.246Z,18.00
2022-10-02T11:45:16.550Z,18.00
2022-10-02T11:48:16.420Z,18.00
2022-10-02T11:51:01.990Z,18.20
2022-10-02T11:53:49.743Z,18.40
2022-10-02T11:56:49.271Z,18.60
2022-10-02T11:59:51.779Z,18.80
2022-10-02T12:02:26.204Z,18.80
2022-10-02T12:05:11.443Z,19.00
2022-10-02T12:07:47.037Z,19.20
2022-10-02T12:10:29.679Z,19.80
2022-10-02T12:13:16.916Z,19.50
2022-10-02T12:15:53.249Z,19.60
2022-10-02T12:18:32.881Z,19.80
2022-10-02T12:21:35.958Z,19.60
2022-10-02T12:24:32.020Z,19.50
2022-10-02T12:27:11.483Z,19.30
2022-10-02T12:29:51.182Z,19.40
2022-10-02T12:32:37.546Z,18.90
2022-10-02T12:35:21.937Z,19.10
2022-10-02T12:38:01.665Z,19.20
2022-10-02T12:40:38.542Z,18.90
2022-10-02T12:43:30.896Z,18.70
2022-10-02T12:46:14.968Z,18.80
2022-10-02T12:49:04.946Z,19.20
2022-10-02T12:51:54.948Z,19.40
2022-10-02T12:54:52.345Z,19.80
2022-10-02T12:57:55.354Z,20.20
2022-10-02T13:00:26.180Z,20.50
2022-10-02T13:03:27.604Z,20.60
2022-10-02T13:06:37.351Z,20.80
2022-10-02T13:09:16.648Z,20.80
2022-10-02T13:11:57.089Z,21.00
2022-10-02T13:14:55.018Z,21.60
2022-10-02T13:17:31.667Z,21.80
2022-10-02T13:20:11.746Z,21.60
2022-10-02T13:22:49.317Z,21.30
2022-10-02T13:25:35.102Z,21.30
2022-10-02T13:28:18.013Z,21.50
2022-10-02T13:30:54.982Z,21.60
2022-10-02T13:33:38.662Z,22.00
2022-10-02T13:36:15.169Z,22.20
2022-10-02T13:39:08.103Z,21.80
2022-10-02T13:41:54.379Z,22.10
2022-10-02T13:44:30.569Z,22.10
2022-10-02T13:47:22.689Z,22.10
2022-10-02T13:50:08.541Z,22.00
2022-10-02T13:52:46.058Z,22.20
2022-10-02T13:55:23.714Z,22.70
2022-10-02T13:58:07.143Z,22.60
2022-10-02T14:00:55.297Z,22.80
2022-10-02T14:03:35.932Z,23.30
2022-10-02T14:06:13.138Z,23.10
2022-10-02T14:09:08.102Z,23.00
2022-10-02T14:11:51.679Z,23.00
2022-10-02T14:14:35.913Z,22.40
2022-10-02T14:17:18.662Z,22.70
2022-10-02T14:20:03.075Z,22.20
2022-10-02T14:22:46.477Z,22.30
2022-10-02T14:25:36.061Z,21.90
2022-10-02T14:28:27.229Z,21.60
2022-10-02T14:31:18.771Z,22.00
2022-10-02T14:34:06.767Z,22.00
2022-10-02T14:36:42.120Z,21.90
2022-10-02T14:39:29.612Z,21.80
2022-10-02T14:42:15.683Z,22.00
2022-10-02T14:45:21.870Z,21.50
2022-10-02T14:48:07.798Z,21.40
2022-10-02T14:51:01.383Z,20.90
2022-10-02T14:53:50.356Z,20.80
2022-10-02T14:56:53.417Z,20.80
2022-10-02T14:59:46.928Z,20.90
2022-10-02T15:02:54.901Z,20.30
2022-10-02T15:05:47.674Z,20.30
2022-10-02T15:08:21.344Z,20.20
2022-10-02T15:10:50.581Z,20.00
2022-10-02T15:13:28.583Z,19.90
2022-10-02T15:16:20.562Z,20.10
2022-10-02T15:18:58.073Z,19.70
2022-10-02T15:21:31.245Z,19.50
2022-10-02T15:24:00.880Z,19.60
2022-10-02T15:26:46.960Z,19.50
2022-10-02T15:29:26.049Z,19.40
2022-10-02T15:32:36.317Z,19.30
2022-10-02T15:35:21.762Z,19.20
2022-10-02T15:38:03.266Z,19.00
2022-10-02T15:40:36.992Z,18.80
2022-10-02T15:43:29.646Z,18.40
2022-10-02T15:46:11.027Z,18.30
2022-10-02T15:49:02.832Z,18.00
2022-10-02T15:51:55.640Z,18.00
2022-10-02T15:54:38.880Z,18.00
2022-10-02T15:57:36.404Z,17.90
2022-10-02T16:00:13.169Z,17.90
2022-10-02T16:02:58.391Z,17.80
2022-10-02T16:05:53.797Z,17.70
2022-10-02T16:08:43.189Z,17.80
2022-10-02T16:11:30.154Z,17.80
2022-10-02T16:14:07.826Z,17.70
2022-10-02T16:17:12.801Z,18.00
2022-10-02T16:20:08.826Z,17.40
2022-10-02T16:23:08.578Z,17.20
2022-10-02T16:25:53.145Z,17.10
2022-10-02T16:28:34.305Z,17.00
2022-10-02T16:31:17.450Z,17.00
2022-10-02T16:33:56.828Z,17.10
2022-10-02T16:36:33.725Z,17.60
2022-10-02T16:39:17.423Z,16.70
2022-10-02T16:42:02.796Z,16.60
2022-10-02T16:45:03.100Z,16.70
2022-10-02T16:47:36.282Z,16.70
2022-10-02T16:50:15.027Z,16.60
2022-10-02T16:52:48.553Z,16.50
2022-10-02T16:55:29.917Z,15.80
2022-10-02T16:58:24.469Z,16.30
2022-10-02T17:00:59.409Z,16.30
2022-10-02T17:03:33.629Z,16.20
2022-10-02T17:06:06.449Z,16.10
2022-10-02T17:08:41.028Z,16.10
2022-10-02T17:11:23.721Z,16.10
2022-10-02T17:14:10.819Z,16.00
2022-10-02T17:16:44.200Z,16.00
2022-10-02T17:19:21.951Z,15.90
2022-10-02T17:21:54.703Z,15.90
2022-10-02T17:24:42.632Z,15.90
2022-10-02T17:27:17.321Z,16.30
2022-10-02T17:30:05.306Z,15.70
2022-10-02T17:32:40.028Z,15.60
2022-10-02T17:35:17.080Z,15.70
2022-10-02T17:38:02.790Z,15.60
2022-10-02T17:40:35.683Z,15.50
2022-10-02T17:43:14.126Z,15.40
2022-10-02T17:45:52.637Z,15.40
2022-10-02T17:48:44.672Z,15.30
2022-10-02T17:51:51.267Z,15.30
2022-10-02T17:54:43.943Z,15.80
2022-10-02T17:57:25.459Z,15.20
2022-10-02T18:00:10.958Z,15.20
2022-10-02T18:03:03.852Z,15.20
2022-10-02T18:05:45.409Z,15.10
2022-10-02T18:08:30.613Z,15.10
2022-10-02T18:11:06.998Z,15.00
2022-10-02T18:14:03.858Z,15.00
2022-10-02T18:16:41.556Z,15.00
2022-10-02T18:19:26.540Z,15.00
2022-10-02T18:22:07.013Z,15.00
2022-10-02T18:24:52.697Z,14.90
2022-10-02T18:27:56.859Z,14.80
2022-10-02T18:30:29.566Z,14.80
2022-10-02T18:33:31.732Z,14.70
2022-10-02T18:36:19.805Z,14.70
2022-10-02T18:38:58.730Z,14.70
2022-10-02T18:41:52.103Z,14.60
2022-10-02T18:44:38.295Z,14.60
2022-10-02T18:47:14.878Z,14.60
2022-10-02T18:49:56.788Z,14.60
2022-10-02T18:52:47.071Z,14.30
2022-10-02T18:55:40.990Z,14.40
2022-10-02T18:58:24.145Z,14.40
2022-10-02T19:01:10.286Z,14.40
2022-10-02T19:03:53.217Z,14.40
2022-10-02T19:06:29.102Z,14.30
2022-10-02T19:09:29.318Z,14.30
2022-10-02T19:12:01.215Z,14.30
2022-10-02T19:14:35.153Z,14.30
2022-10-02T19:17:06.204Z,14.20
2022-10-02T19:19:35.046Z,14.20
2022-10-02T19:22:11.818Z,14.20
2022-10-02T19:24:43.977Z,14.30
2022-10-02T19:27:20.897Z,14.20
2022-10-02T19:29:55.860Z,14.20
2022-10-02T19:32:27.502Z,14.10
2022-10-02T19:35:01.545Z,14.10
2022-10-02T19:37:31.511Z,14.10
2022-10-02T19:40:03.265Z,14.10
2022-10-02T19:42:38.762Z,14.10
2022-10-02T19:45:09.164Z,14.00
2022-10-02T19:47:42.049Z,14.00
2022-10-02T19:50:20.738Z,14.00
2022-10-02T19:52:54.410Z,14.00
2022-10-02T19:55:27.235Z,14.00
2022-10-02T19:57:58.758Z,13.90
2022-10-02T20:00:26.849Z,13.90
2022-10-02T20:02:57.877Z,13.90
2022-10-02T20:05:27.909Z,13.90
2022-10-02T20:08:01.940Z,13.80
2022-10-02T20:10:38.972Z,13.70
2022-10-02T20:13:15.797Z,13.70
2022-10-02T20:16:07.879Z,13.60
2022-10-02T20:18:37.365Z,13.60
2022-10-02T20:21:13.052Z,13.60
2022-10-02T20:23:43.757Z,13.60
2022-10-02T20:26:16.157Z,13.50
2022-10-02T20:28:46.419Z,13.50
2022-10-02T20:31:20.088Z,13.40
2022-10-02T20:33:51.348Z,13.40
2022-10-02T20:36:22.118Z,13.40
2022-10-02T20:38:54.486Z,13.40
2022-10-02T20:41:27.310Z,13.30
2022-10-02T20:44:02.233Z,13.30
2022-10-02T20:47:06.196Z,13.20
2022-10-02T20:49:56.382Z,13.20
2022-10-02T20:52:55.802Z,13.10
2022-10-02T20:55:30.398Z,13.10
2022-10-02T20:58:26.594Z,13.60
2022-10-02T21:01:17.069Z,13.10
2022-10-02T21:06:54.690Z,12.90
2022-10-02T21:09:59.009Z,12.90
2022-10-02T21:12:58.177Z,12.90
2022-10-02T21:16:05.794Z,12.90
2022-10-02T21:19:06.089Z,12.80
2022-10-02T21:22:05.542Z,12.80
2022-10-02T21:25:13.387Z,12.70
2022-10-02T21:28:05.460Z,12.70
2022-10-02T21:30:43.541Z,12.60
2022-10-02T21:33:20.648Z,13.00
2022-10-02T21:35:56.530Z,12.90
2022-10-02T21:38:52.183Z,12.50
2022-10-02T21:41:53.261Z,12.40
2022-10-02T21:44:59.162Z,12.40
2022-10-02T21:48:04.634Z,12.30
2022-10-02T21:51:10.650Z,12.30
2022-10-02T21:54:02.611Z,12.20
2022-10-02T21:57:07.661Z,12.20
2022-10-02T22:00:07.165Z,12.20
2022-10-02T22:03:04.297Z,12.10
2022-10-02T22:06:22.652Z,12.10
2022-10-02T22:09:17.670Z,12.00
2022-10-02T22:11:58.484Z,12.00
2022-10-02T22:14:34.725Z,11.90
2022-10-02T22:17:14.973Z,11.90
2022-10-02T22:20:02.302Z,11.80
2022-10-02T22:22:42.577Z,11.80
2022-10-02T22:25:26.660Z,11.80
2022-10-02T22:28:17.444Z,11.70
2022-10-02T22:31:05.373Z,11.70
2022-10-02T22:33:47.162Z,11.70
2022-10-02T22:36:35.715Z,11.60
2022-10-02T22:39:09.146Z,11.70
2022-10-02T22:41:43.237Z,11.60
2022-10-02T22:44:21.237Z,11.60
2022-10-02T22:46:56.282Z,11.60
2022-10-02T22:49:30.207Z,11.50
2022-10-02T22:52:04.910Z,11.40
2022-10-02T22:54:40.915Z,11.40
2022-10-02T22:57:22.090Z,11.50
2022-10-02T22:59:55.361Z,11.50
2022-10-02T23:02:29.339Z,11.70
2022-10-02T23:05:05.641Z,11.30
2022-10-02T23:07:42.725Z,11.30
2022-10-02T23:10:22.213Z,11.20
2022-10-02T23:13:03.339Z,11.20
2022-10-02T23:15:53.811Z,11.20
2022-10-02T23:18:29.939Z,11.10
2022-10-02T23:21:04.825Z,11.10
2022-10-02T23:23:42.078Z,11.40
2022-10-02T23:26:14.830Z,11.10
2022-10-02T23:28:53.627Z,11.10
2022-10-02T23:31:30.376Z,11.00
2022-10-02T23:34:08.497Z,11.00
2022-10-02T23:36:47.535Z,11.00
2022-10-02T23:39:22.470Z,11.00
2022-10-02T23:41:55.034Z,11.10
2022-10-02T23:44:32.047Z,10.90
2022-10-02T23:47:11.067Z,10.90
2022-10-02T23:49:42.305Z,10.90
2022-10-02T23:52:30.096Z,10.80
2022-10-02T23:55:18.303Z,10.80
2022-10-02T23:58:13.549Z,10.80
